Tiempo atmosférico en la estación meteorológica de Cubillas de Rueda, León (916 m.)



Fecha
DESCASC
Temp. máxima en grados centígrados (hora)
DESCASC
Temp. mínima en grados centígrados (hora)
DESCASC
Temp. media en grados centígrados
DESCASC
Racha de viento máxima en m/sg (hora)
DESCASC
Velocidad máxima media en intervalos de 10 minutos(hora)
DESCASC
Precipitaciones diarias en mm
DESCASC
Precipitaciones de 00:00 a 06:00 en mm
DESCASC
Precipitaciones de 06:00 a 12:00 en mm
DESCASC
Precipitaciones de 12:00 a 18:00 en mm
DESCASC
Precipitaciones de 18:00 a 24:00 en mm
DESCASC
05-04-2020 12.2 (14:20) 8.3 (08:20) 10.3 11.67 (17:50) 5.56 (17:50) 10 0 0 1.8 8.2
04-04-2020 16.1 (16:10) -2.6 (06:50) 6.8 9.17 (15:40) 5 (15:30) 0 0 0 0 0
03-04-2020 12.8 (19:00) -3.5 (06:10) 4.7 5.28 (16:00) 2.5 (12:40) 0 0 0 0 0
02-04-2020 13 (17:40) 1.9 (00:00) 7.4 8.89 (19:00) 6.67 (18:50) 2.8 2.6 0 0.2 0
01-04-2020 12.1 (17:50) 5 (00:00) 8.6 11.67 (00:50) 6.39 (01:20) 9.6 2.4 0 0 7.2
31-03-2020 8.9 (15:10) -5.3 (-00:0) 1.8 14.44 (14:30) 9.17 (14:40) 1.4 0 0 1 0.4
30-03-2020 6.2 (00:00) -2.4 (-00:0) 1.9 11.39 (18:50) 7.5 (18:50) 0 0 0 0 0
29-03-2020 15.4 (16:30) -1.4 (-00:0) 7 9.72 (18:00) 6.11 (20:30) 0 0 0 0 0
28-03-2020 14.9 (15:40) -3.1 (-00:0) 5.9 7.5 (12:10) 4.17 (00:30) 0 0 0 0 0
27-03-2020 11.9 (16:40) -5 (-00:0) 3.4 10.56 (13:00) 6.94 (09:40) 0 0 0 0 0
26-03-2020 13.7 (15:50) -7 (-00:0) 3.3 10.56 (20:10) 6.67 (18:00) 0 0 0 0 0
25-03-2020 17.2 (16:30) -0.5 (-00:0) 8.4 9.17 (18:10) 6.11 (18:10) 0 0 0 0 0
24-03-2020 16.3 (16:20) 3.2 (00:00) 9.7 10.28 (15:10) 5.56 (17:50) 0 0 0 0 0
23-03-2020 14.8 (16:30) 0.2 (00:00) 7.5 8.89 (16:40) 5.56 (14:40) 0 0 0 0 0
22-03-2020 15.7 (14:00) 1.2 (07:30) 8.4 8.89 (13:20) 5 (14:00) 0 0 0 0 0
21-03-2020 13.5 (16:40) 6.6 (00:00) 10 8.06 (11:20) 4.72 (10:40) 0 0 0 0 0
20-03-2020 12.9 (14:00) 6.3 (00:00) 9.6 10 (11:30) 4.44 (14:20) 0 0 0 0 0
19-03-2020 16.3 (13:40) 4.2 (00:00) 10.2 7.5 (12:40) 5 (16:40) 0 0 0 0 0
18-03-2020 18.1 (16:00) 2 (00:00) 10.1 6.39 (12:30) 3.06 (12:20) 0 0 0 0 0
17-03-2020 13.6 (15:20) 4.5 (00:00) 9.1 13.33 (10:20) 8.61 (10:40) 0 0 0 0 0
16-03-2020 8.4 (14:20) 0.2 (00:00) 4.3 18.61 (12:20) 12.5 (12:20) 4.6 4.2 0.4 0 0
15-03-2020 16.6 (14:40) -2.1 (-00:0) 7.3 12.22 (16:50) 6.67 (16:50) 1.2 0 0 0 1.2
14-03-2020 15.8 (17:00) -3.4 (-00:0) 6.2 6.11 (16:00) 3.33 (16:00) 0 0 0 0 0
13-03-2020 14.6 (15:20) 0.9 (23:59) 7.8 6.67 (06:40) 4.44 (18:30) 0 0 0 0 0
12-03-2020 19.4 (15:00) 4.1 (00:00) 11.7 8.33 (18:50) 5.83 (17:50) 0 0 0 0 0
11-03-2020 20 (17:20) -0.6 (-00:0) 9.7 6.39 (20:30) 4.72 (20:30) 0 0 0 0 0
10-03-2020 18.9 (16:50) 0.3 (00:00) 9.6 7.22 (17:50) 4.44 (17:30) 0 0 0 0 0
09-03-2020 14.3 (17:40) -3.4 (-00:0) 5.5 6.39 (16:00) 3.89 (15:10) 0 0 0 0 0
08-03-2020 13.1 (15:10) -2.5 (-00:0) 5.3 11.94 (18:00) 7.22 (15:40) 0 0 0 0 0

Gráficas

Temp. máximas Temp. mínimas Temp. medias Precipitaciones Rachas de viento máximas Velocidades máximas media en intervalos de 10 minutos

Datos horarios

Fecha y hora oficial Temperatura (ºC) Velocidad del viento (km/h) Dirección del viento Racha (km/h) Dirección de racha Precipitación (mm) Presión (hPa) Tendencia (hPa) Humedad (%)
2020-04-06 23:00:00 9 0 Calma 4 Norte 0.2 -- -- 92
2020-04-06 22:00:00 9.5 0 Calma 4 Nordeste 0 -- -- 92
2020-04-06 21:00:00 9.8 3 Este 5 Este 0 -- -- 90
2020-04-06 20:00:00 10.2 0 Calma 5 Noroeste 0.4 -- -- 86
2020-04-06 19:00:00 10.4 4 Oeste 18 Noroeste 0 -- -- 82
2020-04-06 18:00:00 11 8 Noroeste 34 Sur 0 -- -- 80
2020-04-06 17:00:00 13 17 Sur 27 Sur 0 -- -- 71
2020-04-06 16:00:00 14.7 14 Sudoeste 28 Sudoeste 0 -- -- 65
2020-04-06 15:00:00 14 15 Sudoeste 27 Sur 0 -- -- 72
2020-04-06 14:00:00 13 12 Sudoeste 20 Sudoeste 0 -- -- 81
2020-04-06 13:00:00 11.3 11 Sudoeste 20 Sudoeste 0 -- -- 92
2020-04-06 12:00:00 10.6 10 Sudoeste 18 Sudoeste 0 -- -- 97
2020-04-06 11:00:00 10.3 3 Sur 9 Sudeste 0.8 -- -- 96
2020-04-06 10:00:00 9.8 3 Este 8 Nordeste 0.2 -- -- 97
2020-04-06 09:00:00 9 9 Este 14 Este 1.8 -- -- 97
2020-04-06 08:00:00 9 3 Norte 8 Nordeste 0 -- -- 97
2020-04-06 07:00:00 9 5 Nordeste 16 Nordeste 0.4 -- -- 96
2020-04-06 06:00:00 9.1 5 Nordeste 12 Sudeste 0.4 -- -- 96
2020-04-06 05:00:00 9.1 9 Sudeste 14 Sudeste 0.2 -- -- 96
2020-04-06 04:00:00 9.4 8 Sudeste 13 Sudeste 0.4 -- -- 96
2020-04-06 03:00:00 9.5 7 Sudeste 12 Sudeste 0 -- -- 96
2020-04-06 02:00:00 9.6 9 Sudeste 13 Sudeste 0 -- -- 96
2020-04-06 01:00:00 9.4 5 Sur 13 Sudeste 0.2 -- -- 95
2020-04-06 00:00:00 9.4 6 Sudeste 13 Sudeste 0 -- -- 95
2020-04-05 23:00:00 9.4 5 Sudeste 14 Sur 0.4 -- -- 95
2020-04-05 22:00:00 9.6 10 Sur 26 Sur 1.8 -- -- 95
2020-04-05 21:00:00 10 15 Sur 33 Sur 2.6 -- -- 95
2020-04-05 20:00:00 10.2 14 Sur 29 Sur 1.6 -- -- 94
2020-04-05 19:00:00 10.4 15 Sur 33 Sur 1.8 -- -- 94
2020-04-05 18:00:00 11.2 20 Sur 42 Sur 0.6 -- -- 88
2020-04-05 17:00:00 11.7 13 Sur 24 Sur 0.4 -- -- 87
2020-04-05 16:00:00 11.5 12 Sur 24 Sur 0.6 -- -- 88
2020-04-05 15:00:00 11.5 13 Sur 28 Sudoeste 0.2 -- -- 81
2020-04-05 14:00:00 11.9 16 Sur 28 Sur 0 -- -- 71
2020-04-05 13:00:00 11.3 10 Sur 18 Sudoeste 0 -- -- 74
2020-04-05 12:00:00 10 10 Sur 19 Sur 0 -- -- 82
2020-04-05 11:00:00 9.8 13 Sur 27 Sur 0 -- -- 79
2020-04-05 10:00:00 9.4 12 Sur 22 Sur 0 -- -- 77
2020-04-05 09:00:00 8.9 12 Sur 20 Sur 0 -- -- 77
2020-04-05 08:00:00 8.5 14 Sudeste 23 Sudeste 0 -- -- 77
2020-04-05 07:00:00 8.8 9 Sur 15 Sur 0 -- -- 76
2020-04-05 06:00:00 8.8 3 Sur 11 Sur 0 -- -- 74
2020-04-05 05:00:00 8.9 5 Sur 14 Sudeste 0 -- -- 72
2020-04-05 04:00:00 9.3 10 Sudeste 20 Sudeste 0 -- -- 69
2020-04-05 03:00:00 9.8 10 Sudeste 17 Sudeste 0 -- -- 67
2020-04-05 02:00:00 10 9 Sur 23 Sudeste 0 -- -- 64
2020-04-05 01:00:00 10.1 9 Sur 21 Sur 0 -- -- 64
2020-04-05 00:00:00 10 12 Sur 30 Sur 0 -- -- 63
2020-04-04 23:00:00 11.2 13 Sur 29 Sur 0 -- -- 57
2020-04-04 22:00:00 11.8 13 Sur 25 Sur 0 -- -- 55
2020-04-04 21:00:00 12.7 11 Sur 27 Sur 0 -- -- 53
2020-04-04 20:00:00 14.4 9 Sur 24 Sudoeste 0 -- -- 46
2020-04-04 19:00:00 15.4 15 Sur 32 Sur 0 -- -- 44
2020-04-04 18:00:00 15.7 13 Sur 27 Sur 0 -- -- 45
2020-04-04 17:00:00 15.5 15 Sur 30 Sur 0 -- -- 42
2020-04-04 16:00:00 15.9 14 Sur 33 Sur 0 -- -- 35
2020-04-04 15:00:00 14.9 15 Sur 27 Sudoeste 0 -- -- 40
2020-04-04 14:00:00 13.9 12 Sur 24 Sur 0 -- -- 41
2020-04-04 13:00:00 13.3 12 Sudoeste 26 Sudoeste 0 -- -- 45
2020-04-04 12:00:00 12.6 13 Sudeste 22 Este 0 -- -- 52
2020-04-04 11:00:00 10.5 11 Este 18 Sudeste 0 -- -- 61
2020-04-04 10:00:00 5.1 7 Nordeste 11 Nordeste 0 -- -- 84
2020-04-04 09:00:00 0.3 5 Nordeste 8 Nordeste 0 -- -- 95
2020-04-04 08:00:00 -2 6 Este 8 Nordeste 0 -- -- 94
2020-04-04 07:00:00 -2.6 5 Nordeste 7 Nordeste 0 -- -- 93
2020-04-04 06:00:00 -1.3 4 Nordeste 8 Nordeste 0 -- -- 93
2020-04-04 05:00:00 -2.1 4 Nordeste 6 Nordeste 0 -- -- 92
2020-04-04 04:00:00 -2 3 Este 6 Nordeste 0 -- -- 92
2020-04-04 03:00:00 -1.4 4 Este 8 Nordeste 0 -- -- 90
2020-04-04 02:00:00 -0.6 4 Nordeste 6 Nordeste 0 -- -- 88
2020-04-04 01:00:00 0.6 6 Nordeste 9 Nordeste 0 -- -- 89
2020-04-04 00:00:00 1.1 5 Este 6 Este 0 -- -- 85
2020-04-03 23:00:00 2.9 3 Este 6 Este 0 -- -- 81
2020-04-03 22:00:00 6.6 4 Sur 7 Sur 0 -- -- 71
2020-04-03 21:00:00 9.6 4 Sur 10 Sudoeste 0 -- -- 61
2020-04-03 20:00:00 12.1 7 Sudoeste 13 Sudoeste 0 -- -- 51
2020-04-03 19:00:00 12.8 6 Sudoeste 16 Sudoeste 0 -- -- 51
2020-04-03 18:00:00 12.5 8 Sur 15 Sur 0 -- -- 53
2020-04-03 17:00:00 11.9 6 Sudoeste 17 Sudoeste 0 -- -- 57
2020-04-03 16:00:00 10.8 7 Oeste 19 Oeste 0 -- -- 61
2020-04-03 15:00:00 9.2 8 Sudoeste 17 Sudoeste 0 -- -- 68
2020-04-03 14:00:00 7.2 4 Oeste 17 Oeste 0 -- -- 73
2020-04-03 13:00:00 5.7 9 Oeste 17 Sudoeste 0 -- -- 77
2020-04-03 12:00:00 4.7 4 Noroeste 8 Oeste 0 -- -- 83
2020-04-03 11:00:00 3.2 0 Calma 4 Noroeste 0 -- -- 88
2020-04-03 10:00:00 2.2 0 Calma 5 Este 0 -- -- 93
2020-04-03 09:00:00 -0.7 3 Este 5 Norte 0 -- -- 96
2020-04-03 08:00:00 -2.6 3 Este 6 Este 0 -- -- 95
2020-04-03 07:00:00 -2.9 0 Calma 8 Nordeste 0 -- -- 95
2020-04-03 06:00:00 -3.4 2 Nordeste 4 Este 0 -- -- 91
2020-04-03 05:00:00 -2.9 4 Este 5 Nordeste 0 -- -- 91
2020-04-03 04:00:00 -1.9 0 Calma 5 Este 0 -- -- 92
2020-04-03 03:00:00 -1.3 0 Calma 4 Nordeste 0 -- -- 87
2020-04-03 02:00:00 0.8 3 Sudeste 7 Sudeste 0 -- -- 81
2020-04-03 01:00:00 1.2 6 Este 9 Este 0 -- -- 80
2020-04-03 00:00:00 1.9 5 Nordeste 9 Nordeste 0 -- -- 79
2020-04-02 23:00:00 4.3 6 Nordeste 14 Norte 0 -- -- 72
2020-04-02 22:00:00 6.1 8 Norte 19 Norte 0 -- -- 66
2020-04-02 21:00:00 7.6 12 Norte 24 Norte 0 -- -- 61
2020-04-02 20:00:00 9.8 18 Norte 30 Nordeste 0 -- -- 53
2020-04-02 19:00:00 10.9 22 Nordeste 32 Norte 0 -- -- 51
2020-04-02 18:00:00 12 18 Norte 30 Norte 0 -- -- 49
2020-04-02 17:00:00 12.3 12 Nordeste 28 Nordeste 0 -- -- 53
2020-04-02 16:00:00 12.2 18 Norte 31 Nordeste 0 -- -- 57
2020-04-02 15:00:00 11.9 16 Norte 31 Norte 0 -- -- 60
2020-04-02 14:00:00 10.2 20 Norte 30 Norte 0.2 -- -- 68
2020-04-02 13:00:00 9.8 5 Norte 14 Norte 0 -- -- 74
2020-04-02 12:00:00 9.1 4 Norte 6 Norte 0 -- -- 79
2020-04-02 11:00:00 8.3 2 Nordeste 8 Este 0 -- -- 82
2020-04-02 10:00:00 5.9 3 Este 4 Este 0 -- -- 97
2020-04-02 09:00:00 4 3 Este 5 Este 0 -- -- 96
2020-04-02 08:00:00 4.7 2 Noroeste 7 Oeste 0 -- -- 96
2020-04-02 07:00:00 5.2 0 Calma 4 Nordeste 0 -- -- 96
2020-04-02 06:00:00 5.1 3 Norte 4 Nordeste 0 -- -- 96
2020-04-02 05:00:00 5.6 3 Nordeste 4 Nordeste 0 -- -- 96
2020-04-02 04:00:00 5.6 0 Calma 4 Nordeste 0.4 -- -- 95
2020-04-02 03:00:00 5.6 3 Este 6 Este 0.8 -- -- 96
2020-04-02 02:00:00 5.6 3 Nordeste 9 Norte 0.8 -- -- 95
2020-04-02 01:00:00 5.5 5 Nordeste 8 Nordeste 0.6 -- -- 94
2020-04-02 00:00:00 5.6 3 Nordeste 5 Nordeste 0.8 -- -- 92
2020-04-01 23:00:00 5.8 0 Calma 7 Nordeste 2.2 -- -- 92
2020-04-01 22:00:00 6 5 Nordeste 19 Este 4.2 -- -- 91
2020-04-01 21:00:00 7.7 8 Noroeste 18 Sudoeste 0 -- -- 80
2020-04-01 20:00:00 8.6 8 Sudoeste 29 Sudoeste 0 -- -- 75
2020-04-01 19:00:00 11.8 5 Sudeste 13 Este 0 -- -- 59
2020-04-01 18:00:00 12.1 7 Este 21 Nordeste 0 -- -- 55
2020-04-01 17:00:00 11.7 6 Este 18 Este 0 -- -- 54
2020-04-01 16:00:00 11.2 9 Nordeste 20 Nordeste 0 -- -- 61
2020-04-01 15:00:00 10.6 5 Nordeste 20 Este 0 -- -- 65
2020-04-01 14:00:00 9.5 12 Este 19 Este 0 -- -- 75
2020-04-01 13:00:00 7.9 12 Este 19 Este 0 -- -- 81
2020-04-01 12:00:00 7.6 9 Este 15 Este 0 -- -- 83
2020-04-01 11:00:00 6.9 6 Este 14 Este 0 -- -- 87
2020-04-01 10:00:00 6.2 10 Este 19 Sudeste 0 -- -- 92
2020-04-01 09:00:00 5.3 12 Sudeste 19 Sudeste 0 -- -- 94
2020-04-01 08:00:00 5.2 12 Sudeste 21 Sudeste 0 -- -- 93
2020-04-01 07:00:00 5.2 14 Sudeste 25 Este 0 -- -- 93
2020-04-01 06:00:00 5.2 15 Sudeste 28 Este 0 -- -- 93
2020-04-01 05:00:00 5.3 11 Sudeste 20 Sudeste 0.2 -- -- 94
2020-04-01 04:00:00 5.1 7 Este 25 Este 0.6 -- -- 94
2020-04-01 03:00:00 5.1 15 Este 35 Este 1.4 -- -- 91
2020-04-01 02:00:00 5.3 19 Este 34 Este 0.2 -- -- 88
2020-04-01 01:00:00 5.4 23 Este 42 Este 0 -- -- 85
2020-04-01 00:00:00 5.4 23 Este 37 Este 0 -- -- 85
2020-03-31 23:00:00 5.2 22 Este 37 Este 0 -- -- 85
2020-03-31 22:00:00 5 21 Este 45 Este 0 -- -- 87
2020-03-31 21:00:00 5.2 25 Este 48 Este 0 -- -- 86
2020-03-31 20:00:00 5.3 22 Este 41 Este 0.2 -- -- 86
2020-03-31 19:00:00 5.2 25 Este 45 Este 0.2 -- -- 85
2020-03-31 18:00:00 5.1 24 Este 43 Este 1 -- -- 86
2020-03-31 17:00:00 5.8 26 Este 45 Este 0 -- -- 75
2020-03-31 16:00:00 7 30 Este 48 Este 0 -- -- 68
2020-03-31 15:00:00 8.8 28 Este 52 Este 0 -- -- 63
2020-03-31 14:00:00 7.8 28 Este 48 Este 0 -- -- 62
2020-03-31 13:00:00 6.7 31 Este 51 Este 0 -- -- 61
2020-03-31 12:00:00 6.3 30 Este 46 Este 0 -- -- 59
2020-03-31 11:00:00 4.3 19 Este 42 Este 0 -- -- 59
2020-03-31 10:00:00 1.8 28 Este 41 Este 0 -- -- 59
2020-03-31 09:00:00 -0.1 21 Este 43 Este 0 -- -- 65
2020-03-31 08:00:00 -0.7 15 Este 24 Este 0 -- -- 70
2020-03-31 07:00:00 -1.5 11 Nordeste 21 Este 0 -- -- 77
2020-03-31 06:00:00 -2.2 10 Este 16 Este 0 -- -- 81
2020-03-31 05:00:00 -3.1 10 Este 15 Este 0 -- -- 84
2020-03-31 04:00:00 -4.4 2 Nordeste 8 Nordeste 0 -- -- 81
2020-03-31 03:00:00 -4.1 0 Calma 8 Nordeste 0 -- -- 79
2020-03-31 02:00:00 -2 3 Nordeste 12 Este 0 -- -- 73
2020-03-31 01:00:00 -2.5 5 Este 12 Sudeste 0 -- -- 77
2020-03-31 00:00:00 -2.3 2 Norte 8 Nordeste 0 -- -- 73
2020-03-30 23:00:00 -2.3 4 Este 10 Nordeste 0 -- -- 70
2020-03-30 22:00:00 -0.4 9 Nordeste 21 Nordeste 0 -- -- 64
2020-03-30 21:00:00 0.8 13 Norte 26 Norte 0 -- -- 57
2020-03-30 20:00:00 2.8 19 Norte 35 Norte 0 -- -- 50
2020-03-30 19:00:00 4.2 26 Nordeste 41 Norte 0 -- -- 41
2020-03-30 18:00:00 5 19 Norte 38 Nordeste 0 -- -- 43
2020-03-30 17:00:00 5.2 24 Norte 39 Norte 0 -- -- 45
2020-03-30 16:00:00 5.7 19 Nordeste 33 Norte 0 -- -- 39
2020-03-30 15:00:00 5.2 18 Nordeste 33 Norte 0 -- -- 41
2020-03-30 14:00:00 5.2 17 Norte 34 Nordeste 0 -- -- 44
2020-03-30 13:00:00 4.5 17 Norte 40 Este 0 -- -- 45
2020-03-30 12:00:00 3.8 19 Norte 32 Nordeste 0 -- -- 47
2020-03-30 11:00:00 3.1 15 Nordeste 27 Norte 0 -- -- 53
2020-03-30 10:00:00 2.2 15 Norte 24 Nordeste 0 -- -- 55
2020-03-30 09:00:00 1.6 6 Nordeste 23 Nordeste 0 -- -- 63
2020-03-30 08:00:00 1.8 17 Nordeste 31 Nordeste 0 -- -- 60
2020-03-30 07:00:00 1.9 11 Nordeste 29 Este 0 -- -- 59
2020-03-30 06:00:00 2.2 23 Nordeste 36 Nordeste 0 -- -- 61
2020-03-30 05:00:00 3 23 Nordeste 33 Nordeste 0 -- -- 61
2020-03-30 04:00:00 3.9 12 Nordeste 23 Nordeste 0 -- -- 63
2020-03-30 03:00:00 4.3 8 Nordeste 16 Nordeste 0 -- -- 72
2020-03-30 02:00:00 5.2 6 Nordeste 20 Norte 0 -- -- 70
2020-03-30 01:00:00 5.9 11 Norte 19 Nordeste 0 -- -- 67
2020-03-30 00:00:00 6.2 8 Nordeste 15 Nordeste 0 -- -- 67
2020-03-29 23:00:00 5.1 6 Nordeste 21 Norte 0 -- -- 71
2020-03-29 22:00:00 6.5 12 Nordeste 27 Norte 0 -- -- 63
2020-03-29 21:00:00 7.6 15 Norte 32 Norte 0 -- -- 60
2020-03-29 20:00:00 9.6 17 Norte 29 Este 0 -- -- 56
2020-03-29 19:00:00 11.1 14 Este 30 Sudeste 0 -- -- 57
2020-03-29 18:00:00 13.4 19 Sudeste 35 Sudeste 0 -- -- 45
2020-03-29 17:00:00 14.8 8 Sur 19 Sur 0 -- -- 41
2020-03-29 16:00:00 15 11 Sudoeste 24 Sudoeste 0 -- -- 40
2020-03-29 15:00:00 14.5 11 Sudoeste 21 Oeste 0 -- -- 43
2020-03-29 14:00:00 13.3 10 Sudoeste 19 Oeste 0 -- -- 46
2020-03-29 13:00:00 12.4 8 Sudoeste 16 Sudoeste 0 -- -- 52
2020-03-29 12:00:00 10.5 5 Oeste 12 Oeste 0 -- -- 56
2020-03-29 11:00:00 8 2 Noroeste 5 Oeste 0 -- -- 65
2020-03-29 10:00:00 3.9 2 Nordeste 5 Norte 0 -- -- 82
2020-03-29 09:00:00 -0.2 2 Nordeste 3 Nordeste 0 -- -- 93
2020-03-29 08:00:00 -0.9 0 Calma 6 Nordeste 0 -- -- 91
2020-03-29 07:00:00 -0.6 5 Nordeste 8 Nordeste 0 -- -- 88
2020-03-29 06:00:00 -0.8 5 Nordeste 8 Nordeste 0 -- -- 88
2020-03-29 05:00:00 -1.4 5 Nordeste 7 Nordeste 0 -- -- 88
2020-03-29 03:00:00 -0.1 4 Nordeste 7 Nordeste 0 -- -- 80
2020-03-29 01:00:00 0.4 5 Nordeste 7 Este 0 -- -- 78
2020-03-29 00:00:00 1.6 3 Este 8 Nordeste 0 -- -- 72
2020-03-28 23:00:00 2.5 6 Nordeste 8 Este 0 -- -- 72
2020-03-28 22:00:00 3.3 3 Este 4 Este 0 -- -- 66
2020-03-28 21:00:00 7.5 3 Sudoeste 8 Sudoeste 0 -- -- 55
2020-03-28 20:00:00 10.3 5 Sudoeste 8 Sur 0 -- -- 44
2020-03-28 19:00:00 12.9 4 Sudoeste 13 Oeste 0 -- -- 35
2020-03-28 18:00:00 14.4 6 Sudoeste 18 Sur 0 -- -- 33
2020-03-28 17:00:00 14.8 9 Sur 20 Sur 0 -- -- 33
2020-03-28 16:00:00 14.9 8 Sudoeste 19 Sur 0 -- -- 33
2020-03-28 15:00:00 14.4 11 Sur 24 Sudeste 0 -- -- 32
2020-03-28 14:00:00 13.8 10 Sudoeste 25 Sudoeste 0 -- -- 34
2020-03-28 13:00:00 12.9 9 Sudoeste 27 Sudeste 0 -- -- 35
2020-03-28 12:00:00 12.3 4 Sur 15 Sudoeste 0 -- -- 39
2020-03-28 11:00:00 10.2 3 Noroeste 7 Nordeste 0 -- -- 42
2020-03-28 10:00:00 7 3 Norte 11 Norte 0 -- -- 57
2020-03-28 09:00:00 2.8 6 Nordeste 13 Nordeste 0 -- -- 67
2020-03-28 08:00:00 -1.7 5 Nordeste 8 Nordeste 0 -- -- 84
2020-03-28 07:00:00 -2.6 4 Nordeste 9 Nordeste 0 -- -- 81
2020-03-28 06:00:00 -3 5 Nordeste 6 Nordeste 0 -- -- 83
2020-03-28 05:00:00 -2.3 3 Nordeste 8 Nordeste 0 -- -- 82
2020-03-28 04:00:00 -0.7 5 Nordeste 10 Nordeste 0 -- -- 78
2020-03-28 03:00:00 -0.3 8 Nordeste 9 Nordeste 0 -- -- 77
2020-03-28 02:00:00 1.3 6 Nordeste 11 Este 0 -- -- 73
2020-03-28 01:00:00 3.4 6 Nordeste 21 Este 0 -- -- 67
2020-03-28 00:00:00 3.2 10 Este 21 Este 0 -- -- 71
2020-03-27 23:00:00 4.4 14 Este 22 Este 0 -- -- 63
2020-03-27 22:00:00 2.2 10 Nordeste 16 Este 0 -- -- 62
2020-03-27 21:00:00 4.4 6 Sudeste 8 Sudeste 0 -- -- 51
2020-03-27 20:00:00 7.8 6 Sudeste 20 Sudeste 0 -- -- 43
2020-03-27 19:00:00 10.3 10 Sur 24 Sudeste 0 -- -- 34
2020-03-27 18:00:00 10.8 13 Sudeste 28 Sudeste 0 -- -- 32
2020-03-27 17:00:00 11.6 18 Sudeste 32 Sudeste 0 -- -- 30
2020-03-27 16:00:00 11.3 10 Este 36 Este 0 -- -- 32
2020-03-27 15:00:00 11.2 20 Sudeste 36 Sudeste 0 -- -- 33
2020-03-27 14:00:00 10.7 17 Sudeste 34 Sudeste 0 -- -- 34
2020-03-27 13:00:00 9.2 20 Sudeste 38 Sudeste 0 -- -- 37
2020-03-27 12:00:00 8.3 14 Este 37 Este 0 -- -- 42
2020-03-27 11:00:00 6.5 21 Este 37 Este 0 -- -- 47
2020-03-27 10:00:00 4.5 23 Este 37 Este 0 -- -- 53
2020-03-27 09:00:00 0.2 5 Norte 11 Nordeste 0 -- -- 74
2020-03-27 08:00:00 -3.9 5 Nordeste 7 Nordeste 0 -- -- 87
2020-03-27 07:00:00 -4.9 3 Nordeste 12 Nordeste 0 -- -- 89
2020-03-27 06:00:00 -2.8 6 Nordeste 12 Sudeste 0 -- -- 86
2020-03-27 05:00:00 -2.5 11 Sudeste 18 Sudeste 0 -- -- 83
2020-03-27 04:00:00 -1.2 6 Sudeste 15 Sudeste 0 -- -- 75
2020-03-27 03:00:00 0 4 Sudeste 17 Nordeste 0 -- -- 66
2020-03-27 02:00:00 0.3 11 Este 18 Nordeste 0 -- -- 67
2020-03-27 01:00:00 1.8 15 Nordeste 20 Norte 0 -- -- 63
2020-03-27 00:00:00 2.2 16 Nordeste 28 Norte 0 -- -- 64
2020-03-26 23:00:00 3.5 19 Norte 30 Norte 0 -- -- 61
2020-03-26 22:00:00 4 8 Norte 33 Nordeste 0 -- -- 58
2020-03-26 21:00:00 5 19 Nordeste 38 Norte 0 -- -- 56
2020-03-26 20:00:00 6.4 24 Nordeste 36 Nordeste 0 -- -- 51
2020-03-26 19:00:00 9.4 18 Norte 34 Norte 0 -- -- 42
2020-03-26 18:00:00 10.1 24 Norte 35 Norte 0 -- -- 39
2020-03-26 17:00:00 12.6 17 Norte 29 Norte 0 -- -- 34
2020-03-26 16:00:00 13.5 19 Norte 33 Norte 0 -- -- 29
2020-03-26 15:00:00 13.5 15 Norte 28 Norte 0 -- -- 30
2020-03-26 14:00:00 12.1 10 Sudoeste 23 Sudoeste 0 -- -- 38
2020-03-26 13:00:00 10.6 9 Oeste 17 Sur 0 -- -- 42
2020-03-26 12:00:00 8.6 6 Sur 13 Sur 0 -- -- 48
2020-03-26 11:00:00 5.8 4 Sudoeste 13 Oeste 0 -- -- 56
2020-03-26 10:00:00 3.8 0 Calma 5 Sur 0 -- -- 65
2020-03-26 09:00:00 -0.5 2 Nordeste 4 Nordeste 0 -- -- 69
2020-03-26 08:00:00 -6 2 Este 4 Oeste 0 -- -- 85
2020-03-26 07:00:00 -7 2 Este 4 Este 0 -- -- 78
2020-03-26 06:00:00 -5.9 0 Calma 8 Este 0 -- -- 70
2020-03-26 05:00:00 -5.4 3 Este 11 Sur 0 -- -- 64
2020-03-26 04:00:00 -4.9 2 Este 4 Este 0 -- -- 56
2020-03-26 03:00:00 -3.2 2 Noroeste 7 Noroeste 0 -- -- 59
2020-03-26 02:00:00 -1.9 3 Sur 9 Este 0 -- -- 52
2020-03-26 01:00:00 0.2 3 Oeste 7 Sudoeste 0 -- -- 49
2020-03-26 00:00:00 1.6 3 Sudoeste 13 Norte 0 -- -- 49
2020-03-25 23:00:00 3.2 6 Norte 13 Nordeste 0 -- -- 45
2020-03-25 22:00:00 6.6 11 Nordeste 20 Norte 0 -- -- 36
2020-03-25 21:00:00 8.9 12 Norte 23 Norte 0 -- -- 32
2020-03-25 20:00:00 10.8 9 Norte 28 Norte 0 -- -- 34
2020-03-25 19:00:00 13.7 17 Norte 33 Norte 0 -- -- 27
2020-03-25 18:00:00 15.6 22 Norte 31 Norte 0 -- -- 24
2020-03-25 17:00:00 16.9 21 Norte 33 Norte 0 -- -- 22
2020-03-25 16:00:00 16.7 17 Nordeste 32 Nordeste 0 -- -- 20
2020-03-25 15:00:00 17 21 Nordeste 30 Nordeste 0 -- -- 21
2020-03-25 14:00:00 16.7 14 Nordeste 31 Nordeste 0 -- -- 20
2020-03-25 13:00:00 16 6 Este 26 Nordeste 0 -- -- 25
2020-03-25 12:00:00 14.5 11 Nordeste 21 Nordeste 0 -- -- 27
2020-03-25 11:00:00 11.9 3 Noroeste 8 Noroeste 0 -- -- 66
2020-03-25 10:00:00 9 2 Nordeste 5 Nordeste 0 -- -- 78
2020-03-25 09:00:00 4.6 5 Nordeste 9 Nordeste 0 -- -- 94
2020-03-25 08:00:00 0.5 4 Nordeste 6 Nordeste 0 -- -- 97
2020-03-25 07:00:00 -0.5 5 Este 8 Nordeste 0 -- -- 94
2020-03-25 06:00:00 0.1 3 Nordeste 6 Nordeste 0 -- -- 93
2020-03-25 05:00:00 0.7 5 Nordeste 7 Nordeste 0 -- -- 93
2020-03-25 04:00:00 1.5 4 Este 8 Este 0 -- -- 92
2020-03-25 03:00:00 2.5 5 Nordeste 6 Nordeste -- -- -- 92
2020-03-25 02:00:00 3.2 3 Nordeste 8 Nordeste 0 -- -- 87
2020-03-25 01:00:00 3.5 4 Este 8 Este 0 -- -- 87
2020-03-25 00:00:00 4.2 4 Este 8 Nordeste 0 -- -- 83
2020-03-24 23:00:00 5 0 Calma 4 Este 0 -- -- 78
2020-03-24 22:00:00 8 3 Este 10 Sudeste 0 -- -- 75
2020-03-24 21:00:00 9.4 6 Sudeste 12 Sudeste 0 -- -- 68
2020-03-24 20:00:00 11.7 9 Sudeste 20 Sudeste 0 -- -- 58
2020-03-24 19:00:00 13.9 16 Sudeste 27 Sudeste 0 -- -- 52
2020-03-24 18:00:00 15.2 18 Sudeste 33 Sudeste 0 -- -- 47
2020-03-24 17:00:00 15.9 15 Sudeste 32 Sudeste 0 -- -- 44
2020-03-24 16:00:00 16.1 14 Sudeste 37 Sudeste 0 -- -- 47
2020-03-24 15:00:00 15.4 14 Este 36 Este 0 -- -- 48
2020-03-24 14:00:00 15.2 14 Sudeste 30 Sudeste 0 -- -- 51
2020-03-24 13:00:00 13.9 14 Sudeste 24 Este 0 -- -- 52
2020-03-24 12:00:00 12.6 11 Sudeste 27 Sudeste 0 -- -- 62
2020-03-24 11:00:00 11.8 14 Sudeste 28 Sudeste 0 -- -- 63
2020-03-24 10:00:00 10.7 18 Sudeste 30 Este 0 -- -- 68
2020-03-24 09:00:00 8.6 13 Este 19 Este 0 -- -- 78
2020-03-24 08:00:00 6.2 9 Nordeste 23 Este 0 -- -- 86
2020-03-24 07:00:00 5.3 14 Este 19 Este 0 -- -- 91
2020-03-24 06:00:00 3.2 8 Este 11 Este 0 -- -- 92
2020-03-24 05:00:00 4.3 10 Este 13 Este 0 -- -- 92
2020-03-24 04:00:00 5.3 5 Nordeste 14 Este 0 -- -- 91
2020-03-24 03:00:00 5.2 8 Este 11 Este 0 -- -- 90
2020-03-24 02:00:00 6.3 5 Nordeste 18 Este 0 -- -- 85
2020-03-24 01:00:00 7.5 13 Este 25 Este 0 -- -- 85
2020-03-24 00:00:00 8.1 12 Este 22 Este 0 -- -- 83
2020-03-23 23:00:00 8.7 9 Este 22 Sudeste 0 -- -- 78
2020-03-23 22:00:00 10.1 14 Este 28 Este 0 -- -- 72
2020-03-23 21:00:00 10.8 13 Este 31 Este 0 -- -- 65
2020-03-23 20:00:00 11 18 Sudeste 31 Sudeste 0 -- -- 60
2020-03-23 19:00:00 11.9 12 Sudeste 22 Sudeste 0 -- -- 57
2020-03-23 18:00:00 13.4 12 Sudeste 25 Sudeste 0 -- -- 48
2020-03-23 17:00:00 13.4 10 Sudeste 32 Sudeste 0 -- -- 51
2020-03-23 16:00:00 13.9 12 Sudeste 26 Sudeste 0 -- -- 51
2020-03-23 15:00:00 14.4 13 Sudeste 29 Sudeste 0 -- -- 47
2020-03-23 14:00:00 14.3 13 Sudeste 28 Sudeste 0 -- -- 50
2020-03-23 13:00:00 13.3 15 Sudeste 26 Sudeste 0 -- -- 53
2020-03-23 12:00:00 12.6 12 Sudeste 23 Sudeste 0 -- -- 57
2020-03-23 11:00:00 11.2 10 Este 25 Este 0 -- -- 62
2020-03-23 10:00:00 9.1 18 Este 28 Este 0 -- -- 72
2020-03-23 09:00:00 3.8 6 Norte 9 Norte 0 -- -- 87
2020-03-23 08:00:00 0.5 4 Este 10 Nordeste 0 -- -- 92
2020-03-23 07:00:00 0.7 8 Nordeste 14 Nordeste 0 -- -- 91
2020-03-23 06:00:00 0.4 3 Nordeste 10 Nordeste 0 -- -- 90
2020-03-23 05:00:00 0.7 0 Calma 8 Este 0 -- -- 86
2020-03-23 04:00:00 1.6 4 Este 12 Este 0 -- -- 87
2020-03-23 03:00:00 1.9 11 Este 15 Este 0 -- -- 86
2020-03-23 02:00:00 0.6 5 Este 9 Norte 0 -- -- 85
2020-03-23 01:00:00 1.8 6 Nordeste 12 Este 0 -- -- 87
2020-03-23 00:00:00 2.3 4 Este 6 Este 0 -- -- 81
2020-03-22 23:00:00 3.7 2 Nordeste 9 Nordeste 0 -- -- 74
2020-03-22 22:00:00 5.3 10 Este 18 Este 0 -- -- 66
2020-03-22 21:00:00 5.5 8 Este 13 Este 0 -- -- 66
2020-03-22 20:00:00 8.7 6 Este 19 Norte 0 -- -- 67
2020-03-22 19:00:00 11.3 9 Norte 17 Noroeste 0 -- -- 62
2020-03-22 18:00:00 14 6 Norte 21 Este 0 -- -- 55
2020-03-22 17:00:00 14.9 4 Oeste 16 Noroeste 0 -- -- 50
2020-03-22 16:00:00 13.6 11 Norte 23 Sudoeste 0 -- -- 57
2020-03-22 15:00:00 13.3 6 Oeste 29 Sudeste 0 -- -- 57
2020-03-22 14:00:00 15.7 18 Sur 32 Sur 0 -- -- 46
2020-03-22 13:00:00 14.4 11 Sudeste 26 Sudeste 0 -- -- 54
2020-03-22 12:00:00 13.4 5 Sudeste 16 Sudeste 0 -- -- 62
2020-03-22 11:00:00 11.4 6 Noroeste 10 Oeste 0 -- -- 71
2020-03-22 10:00:00 8.4 3 Norte 7 Norte 0 -- -- 83
2020-03-22 09:00:00 5 2 Nordeste 6 Nordeste 0 -- -- 97
2020-03-22 08:00:00 1.6 2 Este 7 Nordeste 0 -- -- 95
2020-03-22 07:00:00 1.8 5 Nordeste 8 Nordeste 0 -- -- 92
2020-03-22 06:00:00 3.7 4 Este 6 Este 0 -- -- 92
2020-03-22 05:00:00 5.9 6 Nordeste 9 Nordeste 0 -- -- 93
2020-03-22 04:00:00 6.9 0 Calma 6 Sudeste 0 -- -- 95
2020-03-22 03:00:00 6.5 0 Calma 10 Este 0 -- -- 94
2020-03-22 02:00:00 6.1 6 Este 14 Sur 0 -- -- 94
2020-03-22 01:00:00 5 4 Sudeste 9 Este 0 -- -- 90
2020-03-22 00:00:00 6.6 0 Calma 16 Este 0 -- -- 84
2020-03-21 23:00:00 7.3 7 Este 13 Este 0 -- -- 82
2020-03-21 22:00:00 7.5 0 Calma 9 Sudeste 0 -- -- 79
2020-03-21 21:00:00 7.7 5 Este 10 Este 0 -- -- 77
2020-03-21 20:00:00 8.7 3 Este 9 Este 0 -- -- 70
2020-03-21 19:00:00 12.3 5 Este 17 Sudeste 0 -- -- 63
2020-03-21 18:00:00 13 8 Sudeste 25 Sudeste 0 -- -- 57
2020-03-21 17:00:00 13.2 13 Sudeste 26 Sudeste 0 -- -- 59
2020-03-21 16:00:00 13 11 Sudeste 24 Sudeste 0 -- -- 62
2020-03-21 15:00:00 12.9 11 Sudeste 20 Sudeste 0 -- -- 63
2020-03-21 14:00:00 12.1 8 Sudeste 18 Sudeste 0 -- -- 65
2020-03-21 13:00:00 11.4 11 Sudeste 24 Sudeste 0 -- -- 66
2020-03-21 12:00:00 11.8 14 Este 29 Este 0 -- -- 66
2020-03-21 11:00:00 10.3 12 Este 26 Este 0 -- -- 74
2020-03-21 10:00:00 9.1 12 Este 26 Este 0 -- -- 79
2020-03-21 09:00:00 8.3 10 Este 18 Este 0 -- -- 83
2020-03-21 08:00:00 6.8 8 Este 21 Este 0 -- -- 87
2020-03-21 07:00:00 7.5 11 Este 19 Este 0 -- -- 85
2020-03-21 06:00:00 7.7 12 Este 20 Este 0 -- -- 86
2020-03-21 05:00:00 7.3 11 Este 21 Este 0 -- -- 85
2020-03-21 04:00:00 6.7 11 Este 19 Este 0 -- -- 87
2020-03-21 03:00:00 7.3 7 Este 14 Este 0 -- -- 86
2020-03-21 02:00:00 8.1 7 Este 15 Este 0 -- -- 90
2020-03-21 01:00:00 7.8 6 Nordeste 15 Este 0 -- -- 91
2020-03-21 00:00:00 8.6 8 Este 16 Sudeste 0 -- -- 91
2020-03-20 23:00:00 9.2 9 Este 21 Sudeste 0 -- -- 87
2020-03-20 22:00:00 10.5 15 Sudeste 23 Sudeste 0 -- -- 81
2020-03-20 21:00:00 10.1 6 Este 9 Este 0 -- -- 79
2020-03-20 20:00:00 10.8 4 Sudeste 5 Sudeste 0 -- -- 75
2020-03-20 19:00:00 11.6 5 Este 11 Sudeste 0 -- -- 72
2020-03-20 18:00:00 12.3 6 Sudeste 13 Sudeste 0 -- -- 68
2020-03-20 17:00:00 12.7 7 Sur 16 Sudeste 0 -- -- 66
2020-03-20 16:00:00 12.4 9 Sur 23 Sudeste 0 -- -- 66
2020-03-20 15:00:00 12.3 12 Sudeste 27 Sudeste 0 -- -- 67
2020-03-20 14:00:00 12.9 11 Sudeste 27 Sudeste 0 -- -- 68
2020-03-20 13:00:00 12.1 13 Este 22 Sudeste 0 -- -- 67
2020-03-20 12:00:00 10.3 13 Sudeste 36 Sudeste 0 -- -- 76
2020-03-20 11:00:00 9.4 14 Sudeste 23 Sudeste 0 -- -- 79
2020-03-20 10:00:00 8.7 10 Sudeste 19 Sudeste 0 -- -- 80
2020-03-20 09:00:00 7.9 8 Este 14 Sudeste 0 -- -- 82
2020-03-20 08:00:00 7 10 Este 19 Este 0 -- -- 84
2020-03-20 07:00:00 7.1 8 Este 19 Este 0 -- -- 82
2020-03-20 06:00:00 7.2 10 Este 20 Este 0 -- -- 80
2020-03-20 05:00:00 6.9 9 Este 17 Este 0 -- -- 82
2020-03-20 04:00:00 6.6 6 Este 13 Este 0 -- -- 81
2020-03-20 03:00:00 7.4 3 Norte 12 Nordeste 0 -- -- 78
2020-03-20 02:00:00 7.1 2 Norte 8 Este 0 -- -- 77
2020-03-20 01:00:00 7.1 7 Este 11 Este 0 -- -- 82
2020-03-20 00:00:00 7.4 5 Nordeste 10 Este 0 -- -- 71
2020-03-19 23:00:00 7.6 7 Este 12 Este 0 -- -- 62
2020-03-19 22:00:00 8.2 9 Este 11 Este 0 -- -- 64
2020-03-19 21:00:00 10.5 7 Este 10 Este 0 -- -- 52
2020-03-19 20:00:00 11.4 6 Este 9 Este 0 -- -- 50
2020-03-19 19:00:00 13.3 5 Este 17 Sudeste 0 -- -- 45
2020-03-19 18:00:00 14.6 9 Sudeste 23 Sudeste 0 -- -- 42
2020-03-19 17:00:00 15.1 14 Sudeste 26 Sudeste 0 -- -- 40
2020-03-19 16:00:00 15.4 13 Sudeste 25 Sudeste 0 -- -- 38
2020-03-19 15:00:00 15.6 16 Sudeste 24 Sudeste 0 -- -- 41
2020-03-19 14:00:00 16.2 10 Sudeste 23 Sudeste 0 -- -- 39
2020-03-19 13:00:00 15.8 14 Sudeste 27 Sudeste 0 -- -- 43
2020-03-19 12:00:00 15.2 11 Sudeste 21 Sudeste 0 -- -- 51
2020-03-19 11:00:00 13.2 6 Este 21 Sudeste 0 -- -- 60
2020-03-19 10:00:00 11.5 12 Sudeste 19 Sudeste 0 -- -- 70
2020-03-19 09:00:00 6.9 5 Nordeste 8 Nordeste 0 -- -- 91
2020-03-19 08:00:00 4.7 5 Nordeste 9 Nordeste 0 -- -- 92
2020-03-19 07:00:00 4.2 5 Nordeste 9 Nordeste 0 -- -- 92
2020-03-19 06:00:00 5.1 5 Nordeste 11 Nordeste 0 -- -- 91
2020-03-19 05:00:00 5.4 6 Nordeste 10 Nordeste 0 -- -- 91
2020-03-19 04:00:00 5.5 4 Este 6 Nordeste 0 -- -- 86
2020-03-19 03:00:00 6.8 3 Nordeste 11 Nordeste 0 -- -- 85
2020-03-19 02:00:00 7.1 6 Nordeste 11 Nordeste 0 -- -- 85
2020-03-19 01:00:00 6.5 5 Nordeste 6 Nordeste 0 -- -- 85
2020-03-19 00:00:00 7.7 5 Nordeste 6 Nordeste 0 -- -- 83
2020-03-18 23:00:00 8.1 4 Nordeste 8 Nordeste 0 -- -- 81
2020-03-18 22:00:00 8 4 Este 5 Este 0 -- -- 81
2020-03-18 21:00:00 10.1 0 Calma 5 Sur 0 -- -- 73
2020-03-18 20:00:00 13.4 6 Sudeste 9 Sudeste 0 -- -- 63
2020-03-18 19:00:00 16.1 5 Sudeste 8 Sur 0 -- -- 53
2020-03-18 18:00:00 17.5 4 Sur 17 Sudeste 0 -- -- 46
2020-03-18 17:00:00 18.1 6 Sudeste 16 Sur 0 -- -- 50
2020-03-18 16:00:00 18.1 7 Sur 17 Sudeste 0 -- -- 47
2020-03-18 15:00:00 17.4 8 Sur 16 Sudeste 0 -- -- 52
2020-03-18 14:00:00 16 9 Sur 16 Sudeste 0 -- -- 56
2020-03-18 13:00:00 15.2 8 Sudeste 23 Sudeste 0 -- -- 59
2020-03-18 12:00:00 14.1 7 Este 19 Este 0 -- -- 62
2020-03-18 11:00:00 11.7 3 Nordeste 12 Norte 0 -- -- 73
2020-03-18 10:00:00 8.4 5 Nordeste 10 Norte 0 -- -- 88
2020-03-18 09:00:00 5.6 4 Nordeste 8 Nordeste 0 -- -- 97
2020-03-18 08:00:00 2.9 4 Nordeste 8 Nordeste 0 -- -- 95
2020-03-18 07:00:00 2.3 5 Nordeste 6 Nordeste 0 -- -- 94
2020-03-18 06:00:00 3.1 3 Este 9 Nordeste 0 -- -- 94
2020-03-18 05:00:00 4 0 Calma 10 Nordeste 0 -- -- 94
2020-03-18 04:00:00 4.5 9 Nordeste 13 Nordeste 0 -- -- 93
2020-03-18 03:00:00 5 9 Nordeste 11 Nordeste 0 -- -- 96
2020-03-18 02:00:00 4.5 7 Nordeste 9 Nordeste 0 -- -- 91
2020-03-18 01:00:00 5.3 2 Este 9 Nordeste 0 -- -- 92
2020-03-18 00:00:00 6.8 7 Este 14 Este 0 -- -- 85
2020-03-17 23:00:00 7.4 12 Este 17 Este 0 -- -- 88
2020-03-17 22:00:00 6.7 7 Nordeste 12 Este 0 -- -- 86
2020-03-17 21:00:00 7 10 Nordeste 13 Nordeste 0 -- -- 85
2020-03-17 20:00:00 9.1 4 Nordeste 19 Este 0 -- -- 80
2020-03-17 19:00:00 10.5 14 Este 25 Este 0 -- -- 76
2020-03-17 18:00:00 11.8 14 Este 32 Este 0 -- -- 71
2020-03-17 17:00:00 12.2 20 Este 40 Este 0 -- -- 70
2020-03-17 16:00:00 12.8 21 Este 40 Este 0 -- -- 66
2020-03-17 15:00:00 13.3 22 Este 34 Este 0 -- -- 66
2020-03-17 14:00:00 12.2 22 Este 36 Este 0 -- -- 67
2020-03-17 13:00:00 12.1 19 Este 37 Este 0 -- -- 65
2020-03-17 12:00:00 12.4 22 Este 48 Este 0 -- -- 64
2020-03-17 11:00:00 13.1 26 Este 48 Este 0 -- -- 59
2020-03-17 10:00:00 11.6 28 Este 44 Este 0 -- -- 62
2020-03-17 09:00:00 8.7 15 Este 25 Este 0 -- -- 70
2020-03-17 08:00:00 5 4 Norte 20 Nordeste 0 -- -- 74
2020-03-17 07:00:00 6 12 Este 25 Nordeste 0 -- -- 73
2020-03-17 06:00:00 5.9 17 Nordeste 24 Nordeste 0 -- -- 72
2020-03-17 05:00:00 5.1 14 Nordeste 22 Nordeste 0 -- -- 72
2020-03-17 04:00:00 5.6 16 Nordeste 23 Nordeste 0 -- -- 68
2020-03-17 03:00:00 4.6 13 Nordeste 24 Nordeste 0 -- -- 71
2020-03-17 02:00:00 4.8 12 Nordeste 28 Nordeste 0 -- -- 69
2020-03-17 01:00:00 5.1 17 Nordeste 27 Nordeste 0 -- -- 66
2020-03-17 00:00:00 5 18 Nordeste 33 Nordeste 0 -- -- 65
2020-03-16 23:00:00 4.7 12 Norte 33 Nordeste 0 -- -- 67
2020-03-16 22:00:00 4.9 23 Norte 38 Nordeste 0 -- -- 64
2020-03-16 21:00:00 5 18 Norte 48 Nordeste 0 -- -- 62
2020-03-16 20:00:00 5.1 28 Norte 47 Norte 0 -- -- 63
2020-03-16 19:00:00 6.6 27 Norte 51 Nordeste 0 -- -- 58
2020-03-16 18:00:00 7.5 28 Norte 54 Norte 0 -- -- 55
2020-03-16 17:00:00 8.2 28 Norte 50 Norte 0 -- -- 50
2020-03-16 16:00:00 8.2 32 Norte 58 Nordeste 0 -- -- 52
2020-03-16 15:00:00 8 30 Norte 62 Norte 0 -- -- 55
2020-03-16 14:00:00 7.7 32 Norte 62 Norte 0 -- -- 56
2020-03-16 13:00:00 6.7 38 Norte 67 Norte 0 -- -- 53
2020-03-16 12:00:00 6.1 38 Norte 65 Norte 0 -- -- 60
2020-03-16 11:00:00 5 29 Norte 49 Norte 0 -- -- 62
2020-03-16 10:00:00 4.2 27 Norte 63 Norte 0 -- -- 65
2020-03-16 09:00:00 3.3 33 Norte 61 Norte 0.2 -- -- 67
2020-03-16 08:00:00 2.9 30 Norte 48 Norte 0 -- -- 71
2020-03-16 07:00:00 2.7 17 Norte 37 Norte 0.2 -- -- 72
2020-03-16 06:00:00 2.5 24 Norte 53 Norte 1.2 -- -- 74
2020-03-16 05:00:00 1.7 17 Norte 28 Norte 1.2 -- -- 82
2020-03-16 04:00:00 0.9 9 Norte 21 Norte 0.4 -- -- 91
2020-03-16 03:00:00 0.3 7 Norte 17 Norte 0.2 -- -- 95
2020-03-16 02:00:00 0.3 6 Norte 35 Norte 0.6 -- -- 95
2020-03-16 01:00:00 0.5 15 Norte 28 Norte 0.6 -- -- 95
2020-03-16 00:00:00 0.6 15 Norte 36 Norte 1 -- -- 93
2020-03-15 23:00:00 1.7 22 Noroeste 40 Nordeste 0.2 -- -- 85
2020-03-15 22:00:00 4.8 21 Norte 34 Norte 0 -- -- 62
2020-03-15 21:00:00 5.4 23 Norte 36 Norte 0 -- -- 61
2020-03-15 20:00:00 7.6 18 Norte 35 Nordeste 0 -- -- 65
2020-03-15 19:00:00 12.5 4 Sudoeste 20 Oeste 0 -- -- 49
2020-03-15 18:00:00 14 11 Oeste 26 Oeste 0 -- -- 45
2020-03-15 17:00:00 11.8 15 Oeste 44 Oeste 0 -- -- 64
2020-03-15 16:00:00 15.2 18 Sudoeste 34 Oeste 0 -- -- 40
2020-03-15 15:00:00 16 19 Sudoeste 37 Sudoeste 0 -- -- 39
2020-03-15 14:00:00 15.6 16 Sudoeste 30 Oeste 0 -- -- 35
2020-03-15 13:00:00 14 15 Sudoeste 24 Sur 0 -- -- 46
2020-03-15 12:00:00 12.5 10 Sudoeste 19 Sudoeste 0 -- -- 53
2020-03-15 11:00:00 11 10 Sur 19 Sudoeste 0 -- -- 54
2020-03-15 10:00:00 8.8 6 Sur 13 Sudeste 0 -- -- 60
2020-03-15 09:00:00 2.2 0 Calma 6 Nordeste 0 -- -- 85
2020-03-15 08:00:00 -1.9 4 Nordeste 5 Nordeste 0 -- -- 90
2020-03-15 07:00:00 -1.9 4 Nordeste 6 Nordeste 0 -- -- 88
2020-03-15 06:00:00 -1.6 5 Nordeste 6 Nordeste 0 -- -- 88
2020-03-15 05:00:00 -0.8 4 Nordeste 7 Nordeste 0 -- -- 86
2020-03-15 04:00:00 -0.7 3 Nordeste 9 Nordeste 0 -- -- 85
2020-03-15 03:00:00 -0.5 4 Nordeste 6 Nordeste 0 -- -- 85
2020-03-15 02:00:00 0.4 6 Nordeste 8 Nordeste 0 -- -- 86
2020-03-15 01:00:00 0.8 4 Nordeste 7 Este 0 -- -- 83
2020-03-15 00:00:00 1.6 6 Este 8 Nordeste 0 -- -- 81
2020-03-14 23:00:00 2.6 0 Calma 9 Nordeste 0 -- -- 75
2020-03-14 22:00:00 3.9 4 Este 7 Este 0 -- -- 74
2020-03-14 21:00:00 8.4 4 Sur 10 Sudeste 0 -- -- 58
2020-03-14 20:00:00 10.5 7 Sudeste 8 Sudeste 0 -- -- 52
2020-03-14 19:00:00 14.7 5 Sur 12 Oeste 0 -- -- 40
2020-03-14 18:00:00 15.6 6 Sudoeste 16 Sudeste 0 -- -- 36
2020-03-14 17:00:00 15.8 9 Sur 18 Sur 0 -- -- 40
2020-03-14 16:00:00 15.2 12 Sudoeste 22 Sudoeste 0 -- -- 42
2020-03-14 15:00:00 14.5 10 Sur 21 Sudoeste 0 -- -- 48
2020-03-14 14:00:00 13.2 10 Sudoeste 17 Sudoeste 0 -- -- 52
2020-03-14 13:00:00 12 8 Sur 17 Sur 0 -- -- 51
2020-03-14 12:00:00 10.4 7 Sudoeste 14 Sudoeste 0 -- -- 58
2020-03-14 11:00:00 8.2 3 Sur 9 Sudoeste 0 -- -- 71
2020-03-14 10:00:00 5.3 3 Sur 7 Sudoeste 0 -- -- 90
2020-03-14 09:00:00 0.3 0 Calma 5 Nordeste 0 -- -- 97
2020-03-14 08:00:00 -3.2 0 Calma 4 Este 0 -- -- 94
2020-03-14 07:00:00 -3.4 3 Este 5 Nordeste 0 -- -- 93
2020-03-14 06:00:00 -2.3 2 Nordeste 5 Este 0 -- -- 96
2020-03-14 05:00:00 -2.1 2 Este 5 Nordeste 0 -- -- 94
2020-03-14 04:00:00 -1.7 3 Nordeste 5 Nordeste 0 -- -- 94
2020-03-14 03:00:00 -1.3 4 Nordeste 5 Nordeste 0 -- -- 92
2020-03-14 02:00:00 0 0 Calma 4 Nordeste 0 -- -- 94
2020-03-14 01:00:00 -0.5 2 Este 5 Este 0 -- -- 91
2020-03-14 00:00:00 0.9 0 Calma 3 Este 0 -- -- 88
2020-03-13 23:00:00 3.1 2 Este 7 Nordeste 0 -- -- 84
2020-03-13 22:00:00 4.7 3 Este 7 Este 0 -- -- 80
2020-03-13 21:00:00 6.6 4 Este 17 Sudeste 0 -- -- 78
2020-03-13 20:00:00 8.4 13 Sudeste 23 Sudeste 0 -- -- 72
2020-03-13 19:00:00 11.1 14 Sudeste 22 Sudeste 0 -- -- 64
2020-03-13 18:00:00 13.1 12 Sudeste 22 Sudeste 0 -- -- 59
2020-03-13 17:00:00 14.3 11 Sudeste 20 Sudeste 0 -- -- 56
2020-03-13 16:00:00 14.4 5 Sudeste 15 Sur 0 -- -- 57
2020-03-13 15:00:00 14 8 Sur 20 Oeste 0 -- -- 56
2020-03-13 14:00:00 14 9 Sudoeste 21 Sudoeste 0 -- -- 55
2020-03-13 13:00:00 12.9 6 Noroeste 12 Oeste 0 -- -- 58
2020-03-13 12:00:00 11.7 6 Oeste 15 Norte 0 -- -- 62
2020-03-13 11:00:00 10.7 4 Sudeste 19 Este 0 -- -- 67
2020-03-13 10:00:00 8.8 8 Nordeste 18 Nordeste 0 -- -- 69
2020-03-13 09:00:00 7.2 11 Este 16 Este 0 -- -- 74
2020-03-13 08:00:00 6.5 8 Este 18 Este 0 -- -- 78
2020-03-13 07:00:00 7.3 13 Este 24 Este 0 -- -- 76
2020-03-13 06:00:00 7.2 9 Sudeste 15 Sudeste 0 -- -- 81
2020-03-13 05:00:00 7.1 5 Este 11 Este 0 -- -- 82
2020-03-13 04:00:00 7.1 5 Este 11 Este 0 -- -- 82
2020-03-13 03:00:00 7.2 7 Este 16 Este 0 -- -- 81
2020-03-13 02:00:00 6.3 8 Este 14 Este 0 -- -- 86
2020-03-13 01:00:00 5.7 8 Este 13 Este 0 -- -- 85
2020-03-13 00:00:00 6.7 3 Sudeste 11 Nordeste 0 -- -- 78
2020-03-12 23:00:00 8.6 7 Este 11 Este 0 -- -- 77
2020-03-12 22:00:00 8.2 5 Este 9 Este 0 -- -- 80
2020-03-12 21:00:00 9.6 8 Nordeste 21 Nordeste 0 -- -- 76
2020-03-12 20:00:00 11.2 18 Nordeste 26 Nordeste 0 -- -- 72
2020-03-12 19:00:00 12.8 16 Este 30 Este 0 -- -- 72
2020-03-12 18:00:00 15.2 18 Sudeste 29 Sudeste 0 -- -- 66
2020-03-12 17:00:00 17.4 15 Sudeste 25 Sudeste 0 -- -- 57
2020-03-12 16:00:00 18.3 10 Sur 18 Sur 0 -- -- 54
2020-03-12 15:00:00 19.4 11 Sur 23 Sudeste 0 -- -- 50
2020-03-12 14:00:00 18.7 9 Sudeste 19 Sudeste 0 -- -- 50
2020-03-12 13:00:00 17.8 7 Sur 18 Sur 0 -- -- 53
2020-03-12 12:00:00 17.1 4 Sudoeste 9 Sudoeste 0 -- -- 52
2020-03-12 11:00:00 14.8 2 Oeste 7 Este 0 -- -- 66
2020-03-12 10:00:00 12.6 0 Calma 4 Norte 0 -- -- 72
2020-03-12 09:00:00 7 5 Nordeste 9 Nordeste 0 -- -- 89
2020-03-12 08:00:00 4.6 3 Nordeste 6 Este 0 -- -- 92
2020-03-12 07:00:00 4.4 4 Nordeste 6 Este 0 -- -- 90
2020-03-12 06:00:00 5.3 3 Nordeste 6 Nordeste 0 -- -- 91
2020-03-12 05:00:00 5 4 Este 8 Nordeste 0 -- -- 87
2020-03-12 04:00:00 4.8 4 Nordeste 9 Nordeste 0 -- -- 87
2020-03-12 03:00:00 5.6 4 Nordeste 8 Nordeste 0 -- -- 87
2020-03-12 02:00:00 5.3 0 Calma 8 Nordeste 0 -- -- 86
2020-03-12 01:00:00 5.9 4 Nordeste 8 Nordeste 0 -- -- 83
2020-03-12 00:00:00 7.2 4 Nordeste 6 Nordeste 0 -- -- 79
2020-03-11 23:00:00 10.5 0 Calma 7 Sur 0 -- -- 69
2020-03-11 22:00:00 12.4 3 Oeste 13 Sudeste 0 -- -- 63
2020-03-11 21:00:00 13.7 4 Oeste 23 Sudeste 0 -- -- 58
2020-03-11 20:00:00 13.2 8 Sudeste 10 Este 0 -- -- 58
2020-03-11 19:00:00 17.9 4 Sudeste 13 Sudoeste 0 -- -- 47
2020-03-11 18:00:00 19.9 6 Sur 15 Sur 0 -- -- 43
2020-03-11 17:00:00 19.6 8 Sudoeste 18 Sudoeste 0 -- -- 42
2020-03-11 16:00:00 19.2 10 Sudoeste 19 Sudoeste 0 -- -- 46
2020-03-11 15:00:00 18.4 9 Sudoeste 21 Sudoeste 0 -- -- 45
2020-03-11 14:00:00 17.3 8 Sudoeste 20 Sur 0 -- -- 45
2020-03-11 13:00:00 16.4 10 Sudoeste 18 Oeste 0 -- -- 48
2020-03-11 12:00:00 15.1 6 Sur 13 Sudoeste 0 -- -- 52
2020-03-11 11:00:00 12.4 5 Sudoeste 9 Oeste 0 -- -- 61
2020-03-11 10:00:00 9.2 0 Calma 8 Nordeste 0 -- -- 66
2020-03-11 09:00:00 4.6 5 Nordeste 8 Nordeste 0 -- -- 76
2020-03-11 08:00:00 -0.3 4 Nordeste 6 Nordeste 0 -- -- 85
2020-03-11 07:00:00 0.1 3 Norte 7 Nordeste 0 -- -- 85
2020-03-11 06:00:00 -0.1 5 Nordeste 6 Este 0 -- -- 83
2020-03-11 05:00:00 0.2 4 Este 6 Nordeste 0 -- -- 82
2020-03-11 04:00:00 0.4 5 Nordeste 8 Nordeste 0 -- -- 80
2020-03-11 03:00:00 0.6 4 Nordeste 6 Nordeste 0 -- -- 80
2020-03-11 02:00:00 1.9 5 Nordeste 8 Nordeste 0 -- -- 80
2020-03-11 01:00:00 2.7 5 Nordeste 9 Nordeste 0 -- -- 77
2020-03-11 00:00:00 4 5 Nordeste 7 Nordeste 0 -- -- 74
2020-03-10 23:00:00 5.2 0 Calma 7 Nordeste 0 -- -- 70
2020-03-10 22:00:00 7.5 2 Sur 8 Este 0 -- -- 66
2020-03-10 21:00:00 12.5 6 Sur 10 Sudoeste 0 -- -- 52
2020-03-10 20:00:00 14.6 2 Sudoeste 17 Sur 0 -- -- 48
2020-03-10 19:00:00 17.6 8 Sur 23 Sudoeste 0 -- -- 43
2020-03-10 18:00:00 18.6 14 Sudoeste 26 Sudoeste 0 -- -- 41
2020-03-10 17:00:00 18.8 13 Sudoeste 24 Sudoeste 0 -- -- 37
2020-03-10 16:00:00 18.6 13 Sudoeste 22 Sudoeste 0 -- -- 37
2020-03-10 15:00:00 17.5 9 Oeste 17 Oeste 0 -- -- 42
2020-03-10 14:00:00 15.3 7 Sudoeste 16 Sudoeste 0 -- -- 47
2020-03-10 13:00:00 14.3 8 Sudoeste 17 Sudoeste 0 -- -- 46
2020-03-10 12:00:00 12.7 8 Sudoeste 18 Oeste 0 -- -- 52
2020-03-10 11:00:00 10.2 8 Sudoeste 12 Sudoeste 0 -- -- 55
2020-03-10 10:00:00 7.8 3 Noroeste 7 Noroeste 0 -- -- 65
2020-03-10 09:00:00 2.8 3 Nordeste 6 Nordeste 0 -- -- 80
2020-03-10 08:00:00 0.4 3 Nordeste 6 Nordeste 0 -- -- 81
2020-03-10 07:00:00 0.8 3 Este 5 Nordeste 0 -- -- 79
2020-03-10 06:00:00 0.6 2 Nordeste 4 Nordeste 0 -- -- 82
2020-03-10 05:00:00 1.2 0 Calma 6 Nordeste 0 -- -- 77
2020-03-10 04:00:00 1.5 4 Nordeste 8 Nordeste 0 -- -- 77
2020-03-10 03:00:00 1.5 4 Nordeste 7 Nordeste 0 -- -- 78
2020-03-10 02:00:00 1.9 6 Nordeste 8 Nordeste 0 -- -- 76
2020-03-10 01:00:00 2.8 6 Este 6 Nordeste 0 -- -- 72
2020-03-10 00:00:00 3.9 4 Nordeste 6 Este 0 -- -- 67
2020-03-09 23:00:00 3 3 Nordeste 5 Nordeste 0 -- -- 70
2020-03-09 22:00:00 4 0 Calma 8 Este 0 -- -- 68
2020-03-09 21:00:00 5 7 Este 9 Este 0 -- -- 60
2020-03-09 20:00:00 7.6 2 Nordeste 4 Nordeste 0 -- -- 55
2020-03-09 19:00:00 12.7 3 Noroeste 16 Noroeste 0 -- -- 41
2020-03-09 18:00:00 14.1 10 Noroeste 19 Noroeste 0 -- -- 34
2020-03-09 17:00:00 14 12 Noroeste 19 Noroeste 0 -- -- 32
2020-03-09 16:00:00 13 10 Oeste 23 Noroeste 0 -- -- 36
2020-03-09 15:00:00 13.7 13 Noroeste 21 Noroeste 0 -- -- 36
2020-03-09 14:00:00 12.1 4 Noroeste 13 Sudoeste 0 -- -- 44
2020-03-09 13:00:00 10.9 5 Sur 15 Sur 0 -- -- 50
2020-03-09 12:00:00 8.4 6 Sudoeste 13 Oeste 0 -- -- 58
2020-03-09 11:00:00 7.6 3 Noroeste 9 Oeste 0 -- -- 65
2020-03-09 10:00:00 4.1 2 Norte 4 Nordeste 0 -- -- 81
2020-03-09 09:00:00 -0.6 0 Calma 7 Este 0 -- -- 97
2020-03-09 08:00:00 -3.2 4 Nordeste 5 Nordeste 0 -- -- 94
2020-03-09 07:00:00 -3.3 4 Nordeste 5 Nordeste 0 -- -- 92
2020-03-09 06:00:00 -2.5 0 Calma 3 Nordeste 0 -- -- 92
2020-03-09 05:00:00 -1.2 2 Norte 5 Sudoeste 0 -- -- 92
2020-03-09 04:00:00 -0.3 4 Sur 9 Nordeste 0 -- -- 91
2020-03-09 03:00:00 0.9 3 Noroeste 6 Sur 0 -- -- 86
2020-03-09 02:00:00 2.3 3 Sudoeste 7 Oeste 0 -- -- 84
2020-03-09 01:00:00 4.5 6 Noroeste 12 Noroeste 0 -- -- 79
2020-03-09 00:00:00 5.2 5 Sudoeste 14 Oeste 0 -- -- 79
2020-03-08 23:00:00 5.7 5 Sudoeste 21 Oeste 0 -- -- 78
2020-03-08 22:00:00 7.2 10 Oeste 22 Oeste 0 -- -- 75
2020-03-08 21:00:00 8 11 Oeste 36 Oeste 0 -- -- 71
2020-03-08 20:00:00 9.3 23 Oeste 38 Oeste 0 -- -- 66
2020-03-08 19:00:00 10.8 19 Oeste 41 Noroeste 0 -- -- 63
2020-03-08 18:00:00 12.2 22 Oeste 43 Sudoeste 0 -- -- 57
2020-03-08 17:00:00 11.7 16 Oeste 42 Oeste 0 -- -- 62
2020-03-08 16:00:00 12.3 24 Oeste 41 Oeste 0 -- -- 61
2020-03-08 15:00:00 12.8 21 Oeste 37 Oeste 0 -- -- 60
2020-03-08 14:00:00 11.3 19 Oeste 34 Sudoeste 0 -- -- 71
2020-03-08 13:00:00 8.2 9 Oeste 17 Sudoeste 0 -- -- 78
2020-03-08 12:00:00 7.9 9 Sudoeste 17 Oeste 0 -- -- 75
2020-03-08 11:00:00 5.9 4 Oeste 11 Noroeste 0 -- -- 84
2020-03-08 10:00:00 3.5 3 Oeste 5 Sudoeste 0 -- -- 96
2020-03-08 09:00:00 1.3 0 Calma 7 Este 0 -- -- 97
2020-03-08 08:00:00 0.6 0 Calma 6 Nordeste 0 -- -- 97
2020-03-08 07:00:00 0 4 Noroeste 8 Noroeste 0 -- -- 96
2020-03-08 06:00:00 -0.4 0 Calma 10 Nordeste 0 -- -- 96
2020-03-08 05:00:00 -1.6 8 Nordeste 10 Nordeste 0 -- -- 96
2020-03-08 04:00:00 -2.2 0 Calma 5 Nordeste 0 -- -- 93
2020-03-08 03:00:00 -1.8 4 Este 6 Este 0 -- -- 93
2020-03-08 02:00:00 -1.4 3 Nordeste 5 Nordeste 0 -- -- 91
2020-03-08 01:00:00 -0.3 3 Este 6 Este 0 -- -- 91
2020-03-08 00:00:00 0.4 3 Este 4 Este 0 -- -- 88